Time;durP1;ratioP1;P1;durP2;ratioP2;P2;SDS_P1;SDS_P2;PMS_P1;PMS_P2;Temp;Humidity;BMP_temperature;BMP_pressure;BME280_temperature;BME280_humidity;BME280_pressure;Samples;Min_cycle;Max_cycle;Signal;HPM_P1;HPM_P2
2023/07/21 00:00:14;;;;;;;9.75;4.38;;;14.10;99.90;;;;;;5112995;28;20149;-76
2023/07/21 00:02:41;;;;;;;8.90;4.13;;;14.10;99.90;;;;;;5108710;28;20031;-75
2023/07/21 00:05:07;;;;;;;6.55;3.75;;;14.00;99.90;;;;;;5114296;28;20047;-76
2023/07/21 00:07:35;;;;;;;14.05;3.60;;;14.00;99.90;;;;;;5111702;28;20040;-76
2023/07/21 00:10:08;;;;;;;10.70;3.83;;;13.90;99.90;;;;;;5109862;28;20083;-76
2023/07/21 00:12:35;;;;;;;8.40;3.90;;;13.90;99.90;;;;;;5110649;28;20043;-77
2023/07/21 00:15:02;;;;;;;4.88;3.40;;;13.90;99.90;;;;;;5113518;28;20040;-76
2023/07/21 00:17:30;;;;;;;6.13;3.65;;;13.90;99.90;;;;;;5105614;28;20095;-76
2023/07/21 00:19:58;;;;;;;5.28;3.25;;;13.80;99.90;;;;;;5105122;28;20035;-76
2023/07/21 00:22:25;;;;;;;6.05;3.60;;;13.80;99.90;;;;;;5102018;28;20051;-76
2023/07/21 00:24:51;;;;;;;5.57;3.70;;;13.90;99.90;;;;;;5107494;28;20118;-76
2023/07/21 00:27:17;;;;;;;8.60;3.80;;;13.80;99.90;;;;;;5109787;28;20089;-76
2023/07/21 00:29:43;;;;;;;6.95;3.53;;;13.80;99.90;;;;;;5095058;28;20039;-76
2023/07/21 00:32:17;;;;;;;7.13;4.03;;;13.70;99.90;;;;;;5112525;28;20124;-76
2023/07/21 00:34:44;;;;;;;8.02;3.42;;;14.10;99.90;;;;;;5108259;28;20098;-75
2023/07/21 00:37:10;;;;;;;6.05;3.65;;;13.70;99.90;;;;;;5110327;28;20047;-76
2023/07/21 00:39:36;;;;;;;7.25;3.70;;;13.60;99.90;;;;;;5111476;28;20541;-77
2023/07/21 00:42:04;;;;;;;7.50;4.18;;;13.60;99.90;;;;;;5113501;28;20052;-77
2023/07/21 00:44:30;;;;;;;5.68;3.58;;;13.60;99.90;;;;;;5109563;28;20052;-75
2023/07/21 00:46:56;;;;;;;5.45;3.50;;;13.60;99.90;;;;;;5111173;28;20046;-76
2023/07/21 00:49:22;;;;;;;7.07;3.83;;;13.60;99.90;;;;;;5112296;28;20055;-76
2023/07/21 00:51:48;;;;;;;7.22;3.72;;;13.60;99.90;;;;;;5114957;28;20047;-77
2023/07/21 00:54:14;;;;;;;8.02;4.20;;;13.50;99.90;;;;;;5115695;28;20046;-76
2023/07/21 00:56:42;;;;;;;6.63;3.30;;;13.50;99.90;;;;;;5104514;27;20517;-76
2023/07/21 00:59:08;;;;;;;6.50;3.95;;;13.40;99.90;;;;;;5106374;28;20039;-75
2023/07/21 01:01:33;;;;;;;9.30;4.03;;;13.40;99.90;;;;;;5113768;28;20367;-76
2023/07/21 01:03:59;;;;;;;7.50;4.32;;;13.40;99.90;;;;;;5114503;28;20047;-76
2023/07/21 01:06:27;;;;;;;6.90;4.82;;;13.40;99.90;;;;;;5109763;28;20031;-75
2023/07/21 01:08:56;;;;;;;6.78;4.32;;;13.40;99.90;;;;;;5095181;28;20469;-76
2023/07/21 01:11:24;;;;;;;8.07;4.50;;;13.30;99.90;;;;;;5113321;28;20050;-75
2023/07/21 01:13:53;;;;;;;7.95;4.78;;;13.30;99.90;;;;;;5107777;28;20032;-76
2023/07/21 01:16:20;;;;;;;7.57;4.53;;;13.30;99.90;;;;;;5104379;28;20046;-75
2023/07/21 01:18:46;;;;;;;7.80;4.93;;;13.30;99.90;;;;;;5108986;28;20063;-76
2023/07/21 01:21:19;;;;;;;7.70;4.18;;;13.30;99.90;;;;;;5110857;28;20101;-76
2023/07/21 01:23:56;;;;;;;5.78;4.20;;;13.30;99.90;;;;;;5111779;28;20043;-75
2023/07/21 01:26:23;;;;;;;8.60;4.90;;;13.20;99.90;;;;;;5113892;28;20052;-76
2023/07/21 01:28:49;;;;;;;8.23;4.43;;;13.20;99.90;;;;;;5110114;28;20084;-76
2023/07/21 01:31:16;;;;;;;11.77;5.25;;;13.20;99.90;;;;;;5105784;28;20044;-76
2023/07/21 01:33:43;;;;;;;6.35;4.07;;;13.20;99.90;;;;;;5112670;28;20071;-76
2023/07/21 01:36:12;;;;;;;7.80;4.20;;;13.20;99.90;;;;;;5111987;28;20051;-76
2023/07/21 01:38:38;;;;;;;6.13;4.15;;;13.10;99.90;;;;;;5109074;28;20123;-75
2023/07/21 01:41:06;;;;;;;8.70;4.90;;;13.10;99.90;;;;;;5108560;28;20036;-75
2023/07/21 01:43:32;;;;;;;7.75;4.60;;;13.10;99.90;;;;;;5110443;28;20039;-75
2023/07/21 01:45:58;;;;;;;11.65;4.90;;;13.10;99.90;;;;;;5109201;28;20031;-76
2023/07/21 01:48:24;;;;;;;9.07;4.40;;;13.10;99.90;;;;;;5110788;28;20130;-76
2023/07/21 01:50:56;;;;;;;8.73;4.80;;;13.20;99.90;;;;;;5109751;28;20118;-75
2023/07/21 01:53:28;;;;;;;7.38;4.60;;;13.10;99.90;;;;;;5109465;28;20039;-76
2023/07/21 01:56:09;;;;;;;7.90;4.13;;;13.10;99.90;;;;;;5111605;28;20039;-76
2023/07/21 01:58:38;;;;;;;7.65;4.63;;;13.10;99.90;;;;;;5105406;28;20055;-76
2023/07/21 02:01:06;;;;;;;8.48;4.60;;;13.10;99.90;;;;;;5100514;28;20036;-76
2023/07/21 02:03:33;;;;;;;8.35;4.70;;;13.10;99.90;;;;;;5109406;28;20524;-76
2023/07/21 02:05:58;;;;;;;9.43;4.80;;;13.10;99.90;;;;;;5112603;28;20099;-76
2023/07/21 02:08:24;;;;;;;7.45;4.30;;;13.00;99.90;;;;;;5110042;28;20623;-76
2023/07/21 02:10:53;;;;;;;11.23;4.88;;;13.00;99.90;;;;;;5108932;28;20093;-77
2023/07/21 02:13:18;;;;;;;9.18;4.88;;;13.00;99.90;;;;;;5106512;28;20043;-75
2023/07/21 02:15:44;;;;;;;7.53;4.50;;;13.00;99.90;;;;;;5106306;28;20032;-76
2023/07/21 02:18:10;;;;;;;8.65;4.70;;;13.00;99.90;;;;;;5109810;28;20046;-76
2023/07/21 02:20:35;;;;;;;6.18;3.90;;;13.00;99.90;;;;;;5110113;28;20047;-75
2023/07/21 02:23:01;;;;;;;7.60;4.82;;;13.00;99.90;;;;;;5103697;28;20059;-75
2023/07/21 02:25:27;;;;;;;7.25;4.63;;;13.00;99.90;;;;;;5110803;28;20058;-76
2023/07/21 02:27:52;;;;;;;7.93;4.50;;;13.00;99.90;;;;;;5106072;28;20126;-76
2023/07/21 02:30:18;;;;;;;9.13;5.25;;;12.90;99.90;;;;;;5107075;28;20048;-77
2023/07/21 02:32:43;;;;;;;10.57;4.63;;;13.00;99.90;;;;;;5110613;28;20035;-75
2023/07/21 02:35:09;;;;;;;12.20;4.80;;;13.00;99.90;;;;;;5090876;28;20047;-75
2023/07/21 02:37:36;;;;;;;7.03;4.22;;;12.90;99.90;;;;;;5108489;28;20524;-76
2023/07/21 02:40:04;;;;;;;8.25;4.72;;;12.90;99.90;;;;;;5117196;28;20039;-76
2023/07/21 02:42:30;;;;;;;8.55;4.90;;;12.90;99.90;;;;;;5113903;28;20051;-76
2023/07/21 02:44:56;;;;;;;9.43;4.53;;;12.80;99.90;;;;;;5113621;28;20032;-76
2023/07/21 02:47:21;;;;;;;6.13;4.13;;;12.80;99.90;;;;;;5113939;28;20054;-77
2023/07/21 02:49:47;;;;;;;10.57;4.75;;;12.80;99.90;;;;;;5099499;28;20027;-76
2023/07/21 02:52:13;;;;;;;9.82;4.80;;;12.80;99.90;;;;;;5115382;28;20075;-76
2023/07/21 02:54:38;;;;;;;8.02;4.70;;;12.40;99.90;;;;;;5114598;28;20040;-76
2023/07/21 02:57:05;;;;;;;9.90;4.82;;;12.80;99.90;;;;;;5110802;28;20035;-75
2023/07/21 02:59:31;;;;;;;11.98;5.15;;;12.70;99.90;;;;;;5115852;28;20084;-76
2023/07/21 03:01:57;;;;;;;10.07;4.78;;;12.70;99.90;;;;;;5108731;28;20447;-75
2023/07/21 03:04:24;;;;;;;8.50;4.07;;;12.70;99.90;;;;;;5113597;28;20135;-75
2023/07/21 03:06:50;;;;;;;7.18;4.53;;;12.70;99.90;;;;;;5113417;28;20043;-75
2023/07/21 03:09:16;;;;;;;8.95;4.95;;;12.70;99.90;;;;;;5115418;28;20061;-76
2023/07/21 03:11:41;;;;;;;7.75;4.57;;;12.60;99.90;;;;;;5116627;28;20057;-75
2023/07/21 03:14:09;;;;;;;7.18;4.47;;;12.60;99.90;;;;;;5112966;28;20081;-76
2023/07/21 03:16:35;;;;;;;;;;;12.60;99.90;;;;;;5114762;27;20043;-77
2023/07/21 03:19:01;;;;;;;7.07;4.22;;;12.60;99.90;;;;;;5108568;28;20280;-76
2023/07/21 03:21:30;;;;;;;7.85;4.63;;;12.60;99.90;;;;;;5112656;28;20039;-76
2023/07/21 03:23:56;;;;;;;8.57;4.95;;;12.60;99.90;;;;;;5112938;28;20051;-75
2023/07/21 03:26:22;;;;;;;8.25;4.63;;;12.50;99.90;;;;;;5114432;28;20393;-76
2023/07/21 03:28:48;;;;;;;7.50;4.57;;;12.50;99.90;;;;;;5109801;28;20079;-75
2023/07/21 03:31:13;;;;;;;9.35;4.30;;;12.50;99.90;;;;;;5106824;28;20111;-76
2023/07/21 03:33:39;;;;;;;10.32;4.88;;;12.60;99.90;;;;;;5106887;28;20545;-76
2023/07/21 03:36:05;;;;;;;7.53;4.25;;;12.50;99.90;;;;;;5114413;28;20441;-76
2023/07/21 03:38:37;;;;;;;7.68;4.50;;;12.50;99.90;;;;;;5110794;28;20164;-76
2023/07/21 03:41:05;;;;;;;7.90;4.38;;;12.50;99.90;;;;;;5110335;28;20048;-76
2023/07/21 03:43:31;;;;;;;6.55;4.32;;;12.50;99.90;;;;;;5108063;28;20040;-76
2023/07/21 03:46:02;;;;;;;7.45;4.60;;;12.50;99.90;;;;;;5109712;28;20036;-75
2023/07/21 03:48:28;;;;;;;6.93;3.80;;;12.50;99.90;;;;;;5111184;28;20087;-76
2023/07/21 03:50:59;;;;;;;6.45;4.20;;;12.60;99.90;;;;;;5079540;28;20133;-76
2023/07/21 03:53:28;;;;;;;10.07;4.50;;;12.50;99.90;;;;;;5113734;27;20515;-76
2023/07/21 03:55:54;;;;;;;8.90;4.35;;;12.40;99.90;;;;;;5104862;28;20028;-76
2023/07/21 03:58:21;;;;;;;7.40;4.10;;;12.50;99.90;;;;;;5094695;28;20122;-76
2023/07/21 04:00:47;;;;;;;7.57;4.15;;;12.60;99.90;;;;;;5110522;28;20044;-75
2023/07/21 04:03:14;;;;;;;7.60;4.45;;;12.60;99.90;;;;;;5114854;27;20035;-76
2023/07/21 04:05:40;;;;;;;12.25;4.20;;;12.60;99.90;;;;;;5108168;28;20035;-76
2023/07/21 04:08:06;;;;;;;5.88;3.95;;;12.60;99.90;;;;;;5111326;28;20039;-76
2023/07/21 04:10:32;;;;;;;9.10;3.85;;;12.60;99.90;;;;;;5112608;28;20031;-76
2023/07/21 04:12:58;;;;;;;9.77;4.57;;;12.60;99.90;;;;;;5108709;28;20212;-76
2023/07/21 04:15:28;;;;;;;7.03;3.95;;;12.70;99.90;;;;;;5106949;28;20451;-75
2023/07/21 04:17:56;;;;;;;10.90;4.13;;;12.70;99.90;;;;;;5103583;28;20405;-75
2023/07/21 04:20:24;;;;;;;7.78;4.38;;;12.70;99.90;;;;;;5113886;28;20416;-75
2023/07/21 04:22:50;;;;;;;9.75;4.15;;;12.70;99.90;;;;;;5109351;28;20457;-75
2023/07/21 04:25:18;;;;;;;7.03;3.92;;;12.70;99.90;;;;;;5113848;28;20115;-76
2023/07/21 04:27:50;;;;;;;6.82;3.97;;;12.80;99.90;;;;;;5112112;28;20040;-76
2023/07/21 04:30:17;;;;;;;5.65;4.03;;;12.80;99.90;;;;;;5101813;28;20036;-76
2023/07/21 04:32:42;;;;;;;8.20;4.03;;;12.80;99.90;;;;;;5112005;28;20040;-75
2023/07/21 04:35:08;;;;;;;7.60;3.85;;;12.80;99.90;;;;;;5113291;28;20043;-76
2023/07/21 04:37:35;;;;;;;8.93;3.70;;;12.90;99.90;;;;;;5107433;28;20078;-76
2023/07/21 04:40:06;;;;;;;7.15;3.63;;;12.90;99.90;;;;;;5109015;28;20397;-76
2023/07/21 04:42:32;;;;;;;5.93;3.17;;;12.90;99.90;;;;;;5113578;28;20058;-75
2023/07/21 04:44:59;;;;;;;10.20;3.45;;;13.00;99.90;;;;;;5114678;28;20049;-76
2023/07/21 04:47:24;;;;;;;5.57;3.90;;;13.00;99.90;;;;;;5110281;28;20385;-75
2023/07/21 04:49:53;;;;;;;7.82;3.88;;;13.10;99.90;;;;;;5110688;28;20038;-76
2023/07/21 04:52:22;;;;;;;6.63;3.80;;;13.10;99.90;;;;;;5100457;28;20115;-76
2023/07/21 04:54:48;;;;;;;5.57;3.65;;;13.20;99.90;;;;;;5113121;28;20122;-76
2023/07/21 04:57:14;;;;;;;7.03;3.42;;;13.20;99.90;;;;;;5113312;28;20130;-77
2023/07/21 04:59:40;;;;;;;6.38;3.45;;;13.30;99.90;;;;;;5109483;28;20070;-75
2023/07/21 05:02:06;;;;;;;5.38;3.42;;;13.30;99.90;;;;;;5108423;28;20084;-77
2023/07/21 05:04:31;;;;;;;9.75;3.40;;;13.50;99.90;;;;;;5095183;28;20453;-76
2023/07/21 05:06:57;;;;;;;6.30;3.20;;;13.60;99.90;;;;;;5112931;28;20119;-76
2023/07/21 05:09:23;;;;;;;7.93;3.47;;;13.70;99.90;;;;;;5112192;28;20122;-76
2023/07/21 05:11:48;;;;;;;6.45;2.85;;;13.80;99.90;;;;;;5113281;28;20040;-76
2023/07/21 05:14:14;;;;;;;6.75;3.58;;;13.90;99.90;;;;;;5106456;28;20534;-76
2023/07/21 05:16:41;;;;;;;6.68;3.03;;;14.00;99.90;;;;;;5107586;28;20072;-76
2023/07/21 05:19:08;;;;;;;4.97;3.33;;;14.20;99.90;;;;;;5109919;28;20062;-75
2023/07/21 05:21:35;;;;;;;7.53;3.10;;;14.30;99.90;;;;;;5109494;28;20036;-76
2023/07/21 05:24:01;;;;;;;6.40;3.17;;;14.40;99.90;;;;;;5111040;28;20031;-76
2023/07/21 05:26:30;;;;;;;4.57;2.97;;;14.50;99.90;;;;;;5097235;28;20482;-76
2023/07/21 05:28:57;;;;;;;8.43;3.03;;;14.50;99.90;;;;;;5108671;28;20038;-76
2023/07/21 05:31:23;;;;;;;4.95;2.80;;;14.60;99.90;;;;;;5110397;28;20570;-76
2023/07/21 05:33:50;;;;;;;6.47;3.00;;;14.60;99.90;;;;;;5109871;28;20134;-75
2023/07/21 05:36:15;;;;;;;5.80;3.00;;;14.60;99.90;;;;;;5110105;28;20490;-76
2023/07/21 05:38:41;;;;;;;5.35;3.28;;;14.70;99.90;;;;;;5108750;28;20032;-75
2023/07/21 05:41:07;;;;;;;7.40;2.80;;;14.70;99.90;;;;;;5107083;28;20127;-76
2023/07/21 05:43:34;;;;;;;6.28;3.30;;;14.80;99.90;;;;;;5104554;28;20130;-76
2023/07/21 05:46:03;;;;;;;5.38;2.90;;;14.80;99.90;;;;;;5105781;28;20200;-75
2023/07/21 05:48:28;;;;;;;7.85;3.42;;;14.90;99.90;;;;;;5105138;28;20051;-76
2023/07/21 05:50:55;;;;;;;4.90;2.72;;;14.90;99.90;;;;;;5102306;28;20541;-75
2023/07/21 05:53:20;;;;;;;10.00;3.22;;;15.10;99.90;;;;;;5102092;28;20084;-76
2023/07/21 05:55:46;;;;;;;4.95;2.95;;;15.30;99.90;;;;;;5104222;28;20103;-75
2023/07/21 05:58:12;;;;;;;7.82;2.83;;;15.40;99.90;;;;;;5103842;28;20035;-75
2023/07/21 06:00:39;;;;;;;8.20;3.33;;;15.50;99.90;;;;;;5106129;28;20031;-77
2023/07/21 06:03:06;;;;;;;6.72;2.85;;;15.70;99.90;;;;;;5092164;28;20059;-75
2023/07/21 06:05:32;;;;;;;7.15;3.00;;;16.00;99.90;;;;;;5107371;28;20032;-76
2023/07/21 06:07:58;;;;;;;9.38;3.20;;;16.50;99.90;;;;;;5107184;28;20046;-77
2023/07/21 06:10:24;;;;;;;6.18;2.72;;;17.10;99.90;;;;;;5109500;28;20044;-77
2023/07/21 06:12:50;;;;;;;5.15;2.70;;;17.60;99.90;;;;;;5105975;28;20039;-77
2023/07/21 06:15:15;;;;;;;5.35;2.47;;;18.00;99.90;;;;;;5107734;28;20032;-77
2023/07/21 06:17:41;;;;;;;7.65;3.10;;;18.10;99.90;;;;;;5111089;28;20050;-76
2023/07/21 06:20:09;;;;;;;5.40;2.60;;;18.20;99.90;;;;;;5112509;28;20105;-77
2023/07/21 06:22:35;;;;;;;7.53;2.75;;;18.20;99.90;;;;;;5113664;28;20039;-77
2023/07/21 06:25:03;;;;;;;7.18;2.38;;;18.10;99.90;;;;;;5116811;28;20073;-77
2023/07/21 06:27:29;;;;;;;6.05;2.67;;;17.90;99.90;;;;;;5112421;28;20501;-76
2023/07/21 06:29:55;;;;;;;4.50;2.08;;;17.80;99.90;;;;;;5107533;28;20028;-76
2023/07/21 06:32:21;;;;;;;5.70;1.95;;;17.80;99.90;;;;;;5103448;28;20474;-76
2023/07/21 06:34:47;;;;;;;10.00;2.20;;;17.80;99.90;;;;;;5100220;28;20089;-78
2023/07/21 06:37:13;;;;;;;5.53;2.03;;;17.80;99.90;;;;;;5106629;28;20036;-77
2023/07/21 06:39:38;;;;;;;7.32;2.80;;;17.90;99.90;;;;;;5093315;28;20126;-76
2023/07/21 06:42:06;;;;;;;5.47;2.17;;;17.90;99.90;;;;;;5112825;28;20130;-75
2023/07/21 06:44:34;;;;;;;;;;;18.00;99.90;;;;;;5112213;28;20512;-76
2023/07/21 06:47:00;;;;;;;4.55;1.90;;;18.00;99.90;;;;;;5111661;28;19924;-76
2023/07/21 06:49:26;;;;;;;3.00;1.60;;;18.10;99.90;;;;;;5112355;28;20454;-77
2023/07/21 06:51:52;;;;;;;6.28;1.77;;;18.20;99.90;;;;;;5093376;28;20228;-77
2023/07/21 06:54:18;;;;;;;5.68;1.98;;;18.30;99.90;;;;;;5110980;28;20512;-77
2023/07/21 06:56:43;;;;;;;4.05;1.67;;;18.40;99.90;;;;;;5112556;28;20035;-78
2023/07/21 06:59:09;;;;;;;3.55;1.67;;;18.60;99.90;;;;;;5108590;28;20047;-78
2023/07/21 07:01:35;;;;;;;3.45;1.58;;;18.90;99.90;;;;;;5112601;28;20051;-77
2023/07/21 07:04:01;;;;;;;2.95;1.70;;;19.10;99.90;;;;;;5112327;28;20051;-77
2023/07/21 07:06:30;;;;;;;2.95;1.48;;;19.10;99.90;;;;;;5114314;28;20101;-76
2023/07/21 07:08:56;;;;;;;2.72;1.50;;;19.20;99.90;;;;;;5097406;28;20050;-77
2023/07/21 07:11:22;;;;;;;3.55;1.67;;;19.30;99.90;;;;;;5102939;28;20048;-78
2023/07/21 07:13:48;;;;;;;4.72;2.65;;;19.40;99.90;;;;;;5095293;28;20497;-78
2023/07/21 07:16:14;;;;;;;2.83;1.52;;;19.40;99.90;;;;;;5112224;28;20044;-77
2023/07/21 07:18:39;;;;;;;3.30;1.55;;;19.40;99.90;;;;;;5104654;28;20047;-76
2023/07/21 07:21:05;;;;;;;2.83;1.48;;;19.40;99.90;;;;;;5114177;28;20043;-77
2023/07/21 07:23:31;;;;;;;6.15;1.80;;;19.40;99.90;;;;;;5110302;28;20082;-77
2023/07/21 07:25:56;;;;;;;4.43;1.55;;;19.30;99.90;;;;;;5112371;28;20071;-77
2023/07/21 07:28:22;;;;;;;3.95;1.33;;;19.30;99.90;;;;;;5116181;28;20050;-78
2023/07/21 07:30:48;;;;;;;2.55;1.50;;;19.40;99.90;;;;;;5112888;28;20043;-78
2023/07/21 07:33:15;;;;;;;6.63;2.25;;;19.30;99.90;;;;;;5104884;28;20032;-77
2023/07/21 07:35:52;;;;;;;3.13;1.77;;;19.20;99.90;;;;;;5114405;28;20044;-77
2023/07/21 07:38:24;;;;;;;4.57;1.70;;;19.20;99.90;;;;;;5115075;28;20043;-76
2023/07/21 07:40:50;;;;;;;3.15;1.63;;;19.00;99.90;;;;;;5108533;28;20044;-77
2023/07/21 07:43:15;;;;;;;3.92;1.88;;;19.00;99.90;;;;;;5114546;28;20130;-77
2023/07/21 07:45:41;;;;;;;2.97;1.52;;;19.10;99.90;;;;;;5092530;28;20382;-76
2023/07/21 07:48:07;;;;;;;6.20;1.70;;;19.10;99.90;;;;;;5096829;28;20040;-77
2023/07/21 07:50:40;;;;;;;2.10;1.50;;;19.20;99.90;;;;;;5114076;28;20039;-77
2023/07/21 07:53:06;;;;;;;3.05;1.58;;;19.20;99.90;;;;;;5102687;28;20047;-76
2023/07/21 07:55:42;;;;;;;2.85;1.50;;;19.20;99.90;;;;;;5113276;28;20043;-76
2023/07/21 07:58:09;;;;;;;2.97;1.70;;;19.20;99.90;;;;;;5114351;28;20031;-78
2023/07/21 08:00:36;;;;;;;3.90;1.58;;;19.20;99.90;;;;;;5109447;28;20039;-75
2023/07/21 08:03:06;;;;;;;3.05;1.45;;;19.20;99.90;;;;;;5113491;28;20119;-77
2023/07/21 08:05:32;;;;;;;4.22;1.60;;;19.20;99.90;;;;;;5104965;28;20040;-76
2023/07/21 08:08:01;;;;;;;4.13;1.80;;;19.20;99.90;;;;;;5114573;28;20123;-77
2023/07/21 08:10:28;;;;;;;3.47;1.83;;;19.10;99.90;;;;;;5107615;28;20481;-76
2023/07/21 08:12:57;;;;;;;4.07;1.70;;;19.00;99.90;;;;;;5086041;28;20089;-76
2023/07/21 08:15:24;;;;;;;3.83;1.73;;;19.00;99.90;;;;;;5110644;28;20455;-77
2023/07/21 08:17:50;;;;;;;17.58;2.72;;;19.10;99.90;;;;;;5105032;28;20132;-78
2023/07/21 08:20:18;;;;;;;15.68;2.90;;;19.20;99.90;;;;;;5111629;28;20439;-77
2023/07/21 08:22:48;;;;;;;8.85;1.70;;;19.30;99.90;;;;;;5111349;28;20498;-77
2023/07/21 08:25:14;;;;;;;6.03;1.77;;;19.30;99.90;;;;;;5090633;28;20523;-77
2023/07/21 08:27:40;;;;;;;4.30;1.60;;;19.30;99.90;;;;;;5113282;28;20067;-77
2023/07/21 08:30:09;;;;;;;3.97;1.40;;;19.30;99.90;;;;;;5108494;28;20067;-76
2023/07/21 08:32:36;;;;;;;3.17;1.80;;;19.30;99.90;;;;;;5114502;28;20489;-78
2023/07/21 08:35:05;;;;;;;2.72;1.75;;;19.60;99.90;;;;;;5114558;28;20119;-77
2023/07/21 08:37:32;;;;;;;4.72;2.05;;;19.80;99.90;;;;;;5111308;28;20043;-77
2023/07/21 08:39:58;;;;;;;3.53;2.28;;;20.00;99.90;;;;;;5112288;28;20048;-77
2023/07/21 08:42:24;;;;;;;4.28;2.42;;;20.10;99.90;;;;;;5112274;28;20065;-75
2023/07/21 08:44:53;;;;;;;3.73;1.93;;;20.10;99.90;;;;;;5114783;27;20043;-76
2023/07/21 08:47:23;;;;;;;5.32;2.10;;;20.30;99.90;;;;;;5108744;28;20290;-78
2023/07/21 08:49:49;;;;;;;4.88;2.00;;;20.50;99.90;;;;;;5107196;28;20039;-77
2023/07/21 08:52:15;;;;;;;4.13;1.90;;;20.50;99.90;;;;;;5106898;28;20040;-77
2023/07/21 08:54:43;;;;;;;6.55;2.05;;;20.50;99.90;;;;;;5093710;28;20043;-76
2023/07/21 08:57:10;;;;;;;3.78;2.13;;;20.60;99.90;;;;;;5098726;28;20421;-77
2023/07/21 08:59:36;;;;;;;4.40;2.13;;;20.70;99.90;;;;;;5110812;28;20061;-77
2023/07/21 09:02:02;;;;;;;5.22;2.17;;;20.70;99.90;;;;;;5110039;28;20031;-77
2023/07/21 09:04:27;;;;;;;5.07;2.13;;;20.90;99.90;;;;;;5106835;28;20050;-76
2023/07/21 09:06:59;;;;;;;4.40;1.90;;;21.00;99.60;;;;;;5111899;28;20035;-77
2023/07/21 09:09:26;;;;;;;4.13;1.90;;;20.90;99.70;;;;;;5112960;28;20074;-78
2023/07/21 09:12:04;;;;;;;4.90;2.25;;;20.90;99.40;;;;;;5111792;28;20537;-77
2023/07/21 09:14:43;;;;;;;4.28;2.00;;;20.80;98.90;;;;;;5110898;28;20035;-77
2023/07/21 09:17:12;;;;;;;3.33;1.77;;;20.80;98.70;;;;;;5111926;28;20051;-78
2023/07/21 09:19:38;;;;;;;2.78;1.80;;;20.70;99.20;;;;;;5118031;28;20498;-79
2023/07/21 09:22:08;;;;;;;13.75;2.13;;;20.90;99.70;;;;;;5116530;28;20058;-79
2023/07/21 09:24:35;;;;;;;4.45;1.42;;;21.30;99.60;;;;;;5115301;28;20066;-79
2023/07/21 09:27:15;;;;;;;3.97;1.60;;;21.50;99.30;;;;;;5110024;28;20497;-78
2023/07/21 09:29:48;;;;;;;4.03;1.80;;;21.70;98.60;;;;;;5107114;28;20035;-78
2023/07/21 09:32:21;;;;;;;2.85;1.40;;;21.60;97.10;;;;;;5111444;28;20494;-77
2023/07/21 09:34:56;;;;;;;3.03;1.70;;;21.60;97.00;;;;;;5103980;28;20134;-77
2023/07/21 09:37:25;;;;;;;4.45;1.60;;;21.50;96.70;;;;;;5113404;28;20552;-77
2023/07/21 09:39:57;;;;;;;4.35;1.75;;;21.40;96.20;;;;;;5108809;28;20089;-78
2023/07/21 09:42:23;;;;;;;3.35;1.80;;;21.30;96.40;;;;;;5111459;28;20042;-78
2023/07/21 09:44:51;;;;;;;6.27;1.57;;;21.30;96.20;;;;;;5108826;28;20052;-77
2023/07/21 09:47:17;;;;;;;3.00;1.70;;;21.20;96.40;;;;;;5111238;28;22334;-77
2023/07/21 09:49:44;;;;;;;5.57;2.10;;;21.30;96.10;;;;;;5093331;28;20080;-76
2023/07/21 09:52:15;;;;;;;2.88;1.50;;;21.30;94.90;;;;;;5113470;28;20075;-77
2023/07/21 09:54:46;;;;;;;4.05;2.00;;;21.20;95.90;;;;;;5110853;28;20040;-77
2023/07/21 09:57:18;;;;;;;4.60;1.73;;;21.10;96.00;;;;;;5110602;28;20077;-78
2023/07/21 09:59:48;;;;;;;8.55;1.83;;;21.20;96.20;;;;;;5107653;28;20043;-76
2023/07/21 10:02:15;;;;;;;4.13;1.65;;;21.30;96.10;;;;;;5115275;28;20055;-77
2023/07/21 10:04:45;;;;;;;8.88;1.60;;;21.30;95.00;;;;;;5101401;28;20134;-78
2023/07/21 10:07:12;;;;;;;5.05;1.83;;;21.20;94.90;;;;;;5111943;28;20044;-78
2023/07/21 10:09:39;;;;;;;3.27;1.70;;;21.20;95.30;;;;;;5117591;28;20489;-79
2023/07/21 10:12:12;;;;;;;2.17;1.55;;;21.20;96.10;;;;;;5116536;28;20443;-77
2023/07/21 10:14:38;;;;;;;1.85;1.30;;;21.30;95.60;;;;;;5091172;28;20103;-77
2023/07/21 10:17:08;;;;;;;3.83;1.40;;;21.30;94.90;;;;;;5108949;28;20389;-77
2023/07/21 10:19:47;;;;;;;3.05;1.60;;;21.30;95.40;;;;;;5111202;28;20469;-78
2023/07/21 10:22:24;;;;;;;2.58;1.50;;;21.30;95.40;;;;;;5119463;28;20035;-79
2023/07/21 10:24:54;;;;;;;2.45;1.35;;;21.40;94.50;;;;;;5109547;28;20051;-78
2023/07/21 10:27:23;;;;;;;3.30;1.42;;;21.30;94.70;;;;;;5115994;28;20036;-78
2023/07/21 10:29:53;;;;;;;3.45;1.73;;;21.30;94.50;;;;;;5116368;28;20044;-77
2023/07/21 10:32:24;;;;;;;6.20;1.95;;;21.30;93.60;;;;;;5116102;28;20100;-76
2023/07/21 10:34:52;;;;;;;2.03;1.50;;;21.20;93.80;;;;;;5116325;28;20043;-78
2023/07/21 10:37:18;;;;;;;5.75;1.58;;;21.10;93.70;;;;;;5102962;28;20054;-76
2023/07/21 10:39:53;;;;;;;3.97;2.08;;;21.10;93.60;;;;;;5119193;28;20035;-77
2023/07/21 10:42:19;;;;;;;3.85;1.50;;;21.10;93.20;;;;;;5118180;28;20043;-77
2023/07/21 10:44:47;;;;;;;2.50;1.60;;;21.10;93.60;;;;;;5120660;28;20092;-77
2023/07/21 10:47:15;;;;;;;7.18;1.52;;;21.10;93.70;;;;;;5116294;28;20040;-77
2023/07/21 10:49:41;;;;;;;3.70;1.60;;;21.20;93.20;;;;;;5118007;28;20100;-77
2023/07/21 10:52:07;;;;;;;3.83;1.40;;;21.30;92.80;;;;;;5120676;28;20079;-77
2023/07/21 10:54:33;;;;;;;4.43;1.67;;;21.30;93.40;;;;;;5117369;28;20040;-77
2023/07/21 10:57:00;;;;;;;5.75;1.80;;;21.40;93.50;;;;;;5112303;28;20054;-77
2023/07/21 10:59:34;;;;;;;6.50;1.80;;;21.50;93.00;;;;;;5118155;28;20085;-77
2023/07/21 11:02:02;;;;;;;3.38;1.83;;;21.60;93.00;;;;;;5117048;28;20040;-77
2023/07/21 11:04:31;;;;;;;3.63;1.70;;;21.70;92.80;;;;;;5116846;28;20039;-76
2023/07/21 11:06:59;;;;;;;5.38;1.75;;;21.70;92.40;;;;;;5121654;28;20031;-76
2023/07/21 11:09:26;;;;;;;3.10;1.70;;;21.80;92.60;;;;;;5123854;28;20044;-77
2023/07/21 11:11:56;;;;;;;4.35;2.00;;;21.90;92.00;;;;;;5121221;28;20048;-77
2023/07/21 11:14:26;;;;;;;3.10;1.80;;;22.00;92.10;;;;;;5099205;28;20051;-77
2023/07/21 11:16:59;;;;;;;3.97;1.67;;;22.20;91.60;;;;;;5114845;28;20370;-77
2023/07/21 11:19:26;;;;;;;3.10;1.65;;;22.30;91.20;;;;;;5116222;28;20050;-77
2023/07/21 11:21:53;;;;;;;4.10;1.80;;;22.40;91.60;;;;;;5099052;28;20059;-76
2023/07/21 11:24:22;;;;;;;5.93;2.05;;;22.60;90.30;;;;;;5108129;28;20040;-76
2023/07/21 11:26:48;;;;;;;5.82;2.00;;;22.70;89.70;;;;;;5111844;28;20040;-78
2023/07/21 11:29:15;;;;;;;2.75;1.63;;;22.80;90.40;;;;;;5116455;28;20389;-77
2023/07/21 11:31:41;;;;;;;2.50;1.63;;;22.80;89.30;;;;;;5109986;28;20084;-77
2023/07/21 11:34:22;;;;;;;4.18;1.70;;;23.00;90.50;;;;;;5097472;28;20118;-76
2023/07/21 11:36:51;;;;;;;2.78;1.77;;;23.00;89.10;;;;;;5108945;28;20404;-77
2023/07/21 11:39:21;;;;;;;4.70;1.75;;;22.80;90.00;;;;;;5112119;28;20475;-77
2023/07/21 11:41:55;;;;;;;3.47;1.65;;;22.60;90.50;;;;;;5117832;28;20044;-76
2023/07/21 11:44:22;;;;;;;3.05;1.80;;;22.60;90.90;;;;;;5116444;28;20047;-77
2023/07/21 11:47:12;;;;;;;4.72;2.60;;;22.60;90.70;;;;;;5112854;28;20552;-76
2023/07/21 11:49:40;;;;;;;4.63;1.63;;;22.60;90.40;;;;;;5110600;28;20126;-77
2023/07/21 11:52:07;;;;;;;5.47;2.20;;;22.50;90.40;;;;;;5112353;28;20424;-77
2023/07/21 11:54:43;;;;;;;3.42;2.10;;;22.60;90.50;;;;;;5116128;28;20059;-76
2023/07/21 11:57:10;;;;;;;2.72;1.85;;;22.70;91.10;;;;;;5110593;28;20048;-77
2023/07/21 11:59:36;;;;;;;5.28;2.33;;;22.90;91.10;;;;;;5109384;28;20382;-77
2023/07/21 12:02:04;;;;;;;4.57;2.00;;;22.90;91.30;;;;;;5112195;28;20054;-76
2023/07/21 12:04:30;;;;;;;;;;;22.80;91.20;;;;;;5109280;28;20086;-77
2023/07/21 12:06:56;;;;;;;4.78;2.00;;;22.70;90.50;;;;;;5095639;28;19920;-76
2023/07/21 12:09:22;;;;;;;4.70;2.08;;;22.50;90.00;;;;;;5101220;28;20035;-76
2023/07/21 12:11:48;;;;;;;10.65;2.72;;;22.40;88.70;;;;;;5115367;28;20047;-77
2023/07/21 12:14:14;;;;;;;5.28;2.75;;;21.90;92.20;;;;;;5116215;28;20117;-77
2023/07/21 12:16:40;;;;;;;5.38;2.50;;;21.20;93.30;;;;;;5106456;28;20048;-77
2023/07/21 12:19:06;;;;;;;9.20;2.25;;;20.80;94.40;;;;;;5103317;28;20040;-76
2023/07/21 12:21:36;;;;;;;7.05;2.58;;;20.40;95.40;;;;;;5117558;28;20485;-77
2023/07/21 12:24:01;;;;;;;7.70;3.00;;;20.00;96.40;;;;;;5118285;28;20044;-75
2023/07/21 12:26:27;;;;;;;7.90;3.15;;;19.60;97.10;;;;;;5117226;28;20051;-76
2023/07/21 12:28:53;;;;;;;9.27;2.95;;;19.30;97.80;;;;;;5119602;28;20490;-76
2023/07/21 12:31:20;;;;;;;9.05;3.30;;;19.00;99.00;;;;;;5108232;28;20512;-76
2023/07/21 12:33:47;;;;;;;4.60;3.10;;;18.70;99.90;;;;;;5121351;28;20056;-76
2023/07/21 12:36:14;;;;;;;6.75;3.30;;;18.50;99.90;;;;;;5082252;28;20055;-78
2023/07/21 12:38:41;;;;;;;6.10;3.05;;;18.50;99.90;;;;;;5096676;28;20493;-76
2023/07/21 12:41:10;;;;;;;6.32;3.53;;;18.40;99.90;;;;;;5099675;28;20040;-77
2023/07/21 12:43:37;;;;;;;6.57;2.97;;;18.40;99.90;;;;;;5117395;28;20047;-76
2023/07/21 12:46:03;;;;;;;10.13;3.58;;;18.40;99.90;;;;;;5118282;28;20050;-78
2023/07/21 12:48:30;;;;;;;5.20;3.25;;;18.40;99.90;;;;;;5096813;28;20055;-76